Time;durP1;ratioP1;P1;durP2;ratioP2;P2;SDS_P1;SDS_P2;PMS_P1;PMS_P2;Temp;Humidity;BMP_temperature;BMP_pressure;BME280_temperature;BME280_humidity;BME280_pressure;Samples;Min_cycle;Max_cycle;Signal;HPM_P1;HPM_P2
2022/12/30 00:01:09;;;;;;;4.15;0.90;;;;;;;13.30;49.50;100503.28;5004790;28;96973;-69
2022/12/30 00:03:37;;;;;;;7.68;0.95;;;;;;;13.33;49.65;100510.22;5003842;28;97113;-69
2022/12/30 00:06:04;;;;;;;3.83;0.85;;;;;;;13.32;49.62;100527.09;4998168;28;97901;-69
2022/12/30 00:08:48;;;;;;;4.68;1.00;;;;;;;13.41;49.25;100522.16;5002184;28;97908;-70
2022/12/30 00:11:17;;;;;;;4.97;0.90;;;;;;;13.54;48.99;100522.41;4998209;28;98699;-70
2022/12/30 00:33:09;;;;;;;2.97;0.80;;;;;;;13.52;48.68;100578.22;5000429;28;98745;-71
2022/12/30 00:35:39;;;;;;;5.57;0.80;;;;;;;13.47;49.38;100574.94;5006492;28;97051;-70
2022/12/30 00:38:05;;;;;;;6.15;1.05;;;;;;;13.40;48.83;100564.69;5001533;28;99425;-71
2022/12/30 00:40:32;;;;;;;4.30;0.90;;;;;;;12.96;49.24;100554.47;5011818;28;98762;-70
2022/12/30 00:43:10;;;;;;;6.57;0.82;;;;;;;12.99;49.88;100569.38;4997111;28;97097;-70
2022/12/30 00:45:41;;;;;;;5.38;1.13;;;;;;;12.89;50.26;100563.63;4995620;28;96972;-70
2022/12/30 00:56:23;;;;;;;7.57;1.00;;;;;;;12.54;50.58;100581.19;5002707;28;96897;-69
2022/12/30 00:58:49;;;;;;;7.18;1.40;;;;;;;12.48;50.77;100572.66;4997336;28;98950;-70
2022/12/30 01:01:15;;;;;;;7.63;0.95;;;;;;;12.27;51.10;100574.53;5003772;28;99146;-70
2022/12/30 01:03:42;;;;;;;8.32;0.82;;;;;;;12.49;50.61;100569.94;5002005;28;98780;-70
2022/12/30 01:06:10;;;;;;;4.68;1.15;;;;;;;12.55;50.42;100577.63;5006647;28;97323;-70
2022/12/30 01:08:37;;;;;;;9.77;1.80;;;;;;;12.44;50.19;100581.69;5007048;28;99381;-71
2022/12/30 01:11:07;;;;;;;7.13;0.80;;;;;;;12.51;49.44;100580.47;5003383;28;98656;-71
2022/12/30 01:13:34;;;;;;;6.45;1.05;;;;;;;12.50;49.41;100599.97;5005397;27;97101;-70
2022/12/30 01:16:08;;;;;;;5.22;0.90;;;;;;;12.50;49.18;100598.19;5008158;27;96902;-70
2022/12/30 01:18:34;;;;;;;6.40;1.05;;;;;;;12.57;49.12;100612.00;5011605;28;99591;-69
2022/12/30 01:21:01;;;;;;;8.75;1.13;;;;;;;12.69;49.09;100614.09;5007676;28;98687;-70
2022/12/30 01:23:29;;;;;;;5.80;0.98;;;;;;;12.51;49.40;100617.59;5006575;28;97112;-70
2022/12/30 01:25:55;;;;;;;7.65;1.02;;;;;;;12.42;49.58;100624.16;4997026;28;96860;-70
2022/12/30 01:28:22;;;;;;;6.22;0.98;;;;;;;12.56;49.33;100626.19;5008051;27;99163;-70
2022/12/30 01:30:48;;;;;;;5.25;0.80;;;;;;;12.43;49.51;100630.31;5002615;28;99053;-71
2022/12/30 01:33:15;;;;;;;7.65;1.02;;;;;;;12.55;49.39;100627.97;5004312;28;98938;-70
2022/12/30 01:35:41;;;;;;;5.70;1.20;;;;;;;12.25;49.90;100624.91;5000469;28;97796;-70
2022/12/30 01:38:08;;;;;;;5.93;1.02;;;;;;;12.47;49.43;100629.28;5000019;28;99029;-70
2022/12/30 01:40:40;;;;;;;5.55;1.05;;;;;;;12.45;49.51;100626.69;4998830;28;98866;-71
2022/12/30 01:43:11;;;;;;;7.82;0.88;;;;;;;12.23;49.76;100639.16;5001323;28;98293;-70
2022/12/30 01:45:37;;;;;;;7.03;1.02;;;;;;;11.98;50.43;100656.13;5004959;28;97411;-70
2022/12/30 01:48:11;;;;;;;4.32;0.90;;;;;;;12.12;50.38;100657.31;5005684;28;99273;-70
2022/12/30 01:50:45;;;;;;;9.02;1.27;;;;;;;12.08;50.56;100666.31;4998897;28;99249;-71
2022/12/30 01:53:14;;;;;;;3.50;0.60;;;;;;;11.96;50.93;100667.69;5003409;28;97433;-71
2022/12/30 01:55:46;;;;;;;10.43;1.20;;;;;;;12.07;50.55;100673.41;5000143;28;96898;-71
2022/12/30 01:58:17;;;;;;;5.25;1.02;;;;;;;11.90;50.90;100674.09;5001190;28;98953;-71
2022/12/30 02:00:44;;;;;;;8.50;1.17;;;;;;;11.98;50.67;100690.53;5007275;28;98717;-70
2022/12/30 02:03:11;;;;;;;6.30;1.38;;;;;;;11.93;50.59;100684.59;4998324;28;97371;-70
2022/12/30 02:05:40;;;;;;;6.63;1.00;;;;;;;12.01;50.83;100691.34;4998773;28;99765;-70
2022/12/30 02:08:10;;;;;;;5.03;1.05;;;;;;;12.25;49.86;100699.09;5002467;28;99014;-70
2022/12/30 02:10:39;;;;;;;5.63;1.10;;;;;;;12.25;49.70;100700.88;5004054;28;99454;-70
2022/12/30 02:13:10;;;;;;;9.15;1.30;;;;;;;12.07;49.86;100702.53;5003236;28;96810;-69
2022/12/30 02:15:43;;;;;;;8.43;1.27;;;;;;;12.19;49.65;100706.44;5004309;28;96921;-69
2022/12/30 02:18:21;;;;;;;6.28;1.30;;;;;;;12.15;49.62;100710.13;4999691;28;101009;-70
2022/12/30 02:21:19;;;;;;;5.95;0.98;;;;;;;12.29;49.21;100716.56;4998908;28;99671;-70
2022/12/30 02:24:08;;;;;;;9.50;1.35;;;;;;;12.23;49.41;100716.84;5001963;28;97522;-70
2022/12/30 02:27:07;;;;;;;8.73;1.42;;;;;;;12.35;48.97;100724.25;5003528;28;97102;-70
2022/12/30 02:30:03;;;;;;;8.77;1.20;;;;;;;12.21;49.59;100718.69;4998760;28;98954;-72
2022/12/30 02:32:38;;;;;;;10.68;1.70;;;;;;;12.14;49.55;100724.34;5001525;28;98822;-70
2022/12/30 02:35:16;;;;;;;4.65;0.68;;;;;;;12.03;49.66;100722.13;4999220;28;96809;-70
2022/12/30 02:37:50;;;;;;;5.38;1.00;;;;;;;12.14;49.40;100732.28;5003162;28;98923;-70
2022/12/30 02:40:24;;;;;;;9.52;1.38;;;;;;;12.28;49.12;100725.44;5006467;28;97870;-70
2022/12/30 02:45:47;;;;;;;9.27;1.42;;;;;;;12.15;49.40;100732.19;5007026;28;97332;-71
2022/12/30 02:48:18;;;;;;;7.93;1.40;;;;;;;12.30;49.26;100725.38;5001873;28;97005;-70
2022/12/30 02:53:33;;;;;;;10.55;1.55;;;;;;;12.23;49.25;100724.78;5002978;28;96999;-70
2022/12/30 02:56:00;;;;;;;6.97;1.23;;;;;;;12.31;48.89;100727.97;5003176;28;96803;-69
2022/12/30 02:58:30;;;;;;;11.65;1.20;;;;;;;12.52;48.46;100725.34;5011702;27;97326;-70
2022/12/30 03:04:10;;;;;;;8.63;1.27;;;;;;;12.43;48.35;100725.72;5005003;28;97100;-71
2022/12/30 03:06:58;;;;;;;9.93;1.20;;;;;;;12.32;48.52;100723.53;5011332;28;97240;-72
2022/12/30 03:09:40;;;;;;;7.63;1.33;;;;;;;12.41;48.48;100730.22;5008477;28;96951;-71
2022/12/30 03:12:14;;;;;;;9.60;1.20;;;;;;;12.14;49.25;100737.56;5004542;28;97596;-70
2022/12/30 03:14:46;;;;;;;9.60;1.38;;;;;;;12.29;48.89;100739.56;5000001;28;100467;-71
2022/12/30 03:17:18;;;;;;;5.18;1.33;;;;;;;12.21;49.11;100734.56;5009558;28;96838;-71
2022/12/30 03:19:50;;;;;;;9.18;1.25;;;;;;;12.10;49.26;100749.19;5006012;28;96824;-71
2022/12/30 03:27:47;;;;;;;;;;;;;;;12.05;49.57;100754.69;5001080;28;97962;-71
2022/12/30 03:30:17;;;;;;;3.95;0.95;;;;;;;11.96;49.96;100755.94;5005903;28;97042;-71
2022/12/30 03:32:43;;;;;;;11.38;1.80;;;;;;;12.12;49.49;100761.47;5001089;28;98301;-71
2022/12/30 03:35:11;;;;;;;10.07;1.45;;;;;;;12.19;49.23;100755.00;5009943;28;99518;-71
2022/12/30 03:37:42;;;;;;;7.35;1.23;;;;;;;12.08;49.55;100759.84;5000220;28;97879;-70
2022/12/30 03:40:13;;;;;;;8.10;1.45;;;;;;;12.12;49.44;100761.47;5001969;28;97284;-70
2022/12/30 03:42:39;;;;;;;7.32;1.17;;;;;;;11.94;49.89;100765.75;5001012;28;99431;-71
2022/12/30 03:45:07;;;;;;;8.45;1.25;;;;;;;12.00;49.79;100772.56;5006995;28;98909;-72
2022/12/30 03:47:34;;;;;;;6.95;1.33;;;;;;;11.81;50.20;100779.53;5005299;28;96995;-72
2022/12/30 03:50:00;;;;;;;6.90;1.27;;;;;;;11.86;49.89;100778.44;5000399;28;98703;-72
2022/12/30 03:52:28;;;;;;;6.75;1.35;;;;;;;11.97;49.65;100785.94;4996459;28;99214;-72
2022/12/30 03:54:54;;;;;;;7.65;1.23;;;;;;;11.88;50.10;100787.16;5001722;28;99317;-72
2022/12/30 03:57:21;;;;;;;10.80;1.45;;;;;;;11.82;50.06;100791.84;5000833;28;101761;-72
2022/12/30 03:59:47;;;;;;;10.40;1.45;;;;;;;11.79;50.13;100784.03;5013735;28;97082;-72
2022/12/30 04:02:13;;;;;;;5.72;1.33;;;;;;;11.64;50.56;100787.22;5004838;27;99536;-71
2022/12/30 04:04:40;;;;;;;9.75;1.33;;;;;;;11.80;50.32;100789.25;5002215;28;98143;-71
2022/12/30 04:07:06;;;;;;;12.60;1.45;;;;;;;12.06;49.87;100787.34;5006671;28;97121;-72
2022/12/30 04:09:34;;;;;;;7.85;1.40;;;;;;;12.00;49.68;100795.53;4995826;28;101596;-72
2022/12/30 04:12:00;;;;;;;10.30;1.30;;;;;;;11.93;50.05;100800.22;5003051;28;98978;-72
2022/12/30 04:14:27;;;;;;;4.80;1.10;;;;;;;12.13;49.58;100789.69;4997595;28;98914;-71
2022/12/30 04:16:53;;;;;;;9.25;1.42;;;;;;;12.22;49.19;100799.88;5002453;28;96960;-71
2022/12/30 04:19:22;;;;;;;11.45;1.80;;;;;;;12.24;48.95;100794.53;5011503;28;96841;-71
2022/12/30 04:21:48;;;;;;;9.57;1.35;;;;;;;12.03;49.49;100800.69;4998715;28;99563;-71
2022/12/30 04:24:15;;;;;;;11.45;1.35;;;;;;;11.99;49.40;100792.03;4995898;27;98921;-72
2022/12/30 04:26:43;;;;;;;14.15;1.35;;;;;;;12.08;49.25;100801.41;5003171;28;98351;-72
2022/12/30 04:29:10;;;;;;;10.13;2.03;;;;;;;12.13;49.05;100805.59;4994554;28;96849;-71
2022/12/30 04:31:36;;;;;;;11.13;1.48;;;;;;;12.03;49.17;100812.16;5000888;28;99301;-72
2022/12/30 04:34:03;;;;;;;12.27;1.30;;;;;;;12.03;49.05;100806.00;5006377;28;99271;-72
2022/12/30 04:36:29;;;;;;;8.98;1.42;;;;;;;12.05;48.93;100812.97;5002932;28;96831;-71
2022/12/30 04:38:56;;;;;;;9.32;1.70;;;;;;;12.23;48.46;100811.34;5003011;28;96911;-71
2022/12/30 04:41:22;;;;;;;11.18;1.75;;;;;;;12.08;48.66;100815.47;5006176;28;99093;-70
2022/12/30 04:43:50;;;;;;;6.95;0.98;;;;;;;11.88;49.10;100807.50;5002569;28;98906;-70
2022/12/30 04:46:16;;;;;;;8.30;1.02;;;;;;;12.01;48.88;100805.22;5001941;28;98048;-69
2022/12/30 04:48:43;;;;;;;7.25;1.40;;;;;;;11.78;49.45;100814.06;5010280;28;97005;-70
2022/12/30 04:51:09;;;;;;;7.72;1.20;;;;;;;11.94;48.88;100828.44;5010245;28;98957;-70
2022/12/30 04:53:36;;;;;;;14.73;1.75;;;;;;;12.11;48.59;100825.97;5011503;28;99320;-69
2022/12/30 04:56:02;;;;;;;12.30;1.50;;;;;;;12.06;48.80;100833.25;5003977;28;96803;-69
2022/12/30 04:58:29;;;;;;;10.88;1.50;;;;;;;12.14;48.63;100831.13;5017090;27;96992;-70
2022/12/30 05:00:57;;;;;;;11.20;2.35;;;;;;;12.08;48.59;100833.19;5017115;28;99460;-70
2022/12/30 05:03:23;;;;;;;10.10;1.55;;;;;;;12.02;48.80;100839.56;5008437;27;98782;-69
2022/12/30 05:05:50;;;;;;;9.00;1.40;;;;;;;12.06;48.88;100849.13;5000941;28;96709;-70
2022/12/30 05:08:16;;;;;;;7.65;1.45;;;;;;;11.87;49.27;100849.00;5006501;28;97021;-70
2022/12/30 05:10:43;;;;;;;12.18;2.05;;;;;;;11.89;49.05;100856.84;5006451;28;99036;-70
2022/12/30 05:13:09;;;;;;;8.25;1.23;;;;;;;11.94;49.02;100858.44;5007668;28;98816;-69
2022/12/30 05:15:35;;;;;;;9.57;1.15;;;;;;;11.86;49.27;100857.00;5001114;28;96865;-69
2022/12/30 05:18:03;;;;;;;10.82;1.10;;;;;;;11.80;49.52;100865.19;5001913;28;97140;-69
2022/12/30 05:20:30;;;;;;;9.25;1.42;;;;;;;11.81;49.50;100864.25;5008897;28;98948;-69
2022/12/30 05:22:56;;;;;;;5.22;1.00;;;;;;;11.69;49.84;100872.63;5007515;28;98973;-70
2022/12/30 05:28:07;;;;;;;7.70;1.05;;;;;;;11.56;50.48;100875.72;5001297;28;97082;-69
2022/12/30 05:30:34;;;;;;;15.38;1.40;;;;;;;11.63;50.29;100876.34;5010186;28;98949;-69
2022/12/30 05:33:00;;;;;;;7.72;1.10;;;;;;;11.58;50.45;100884.47;5002931;28;100648;-69
2022/12/30 05:35:28;;;;;;;10.10;1.17;;;;;;;11.45;50.52;100875.28;5005039;28;96845;-69
2022/12/30 05:37:54;;;;;;;6.80;1.17;;;;;;;11.27;51.21;100873.31;5008770;28;97410;-69
2022/12/30 05:40:21;;;;;;;7.65;1.20;;;;;;;11.39;50.95;100885.22;5004025;27;100120;-70
2022/12/30 05:42:48;;;;;;;8.73;1.13;;;;;;;11.44;50.75;100889.41;5003992;28;99218;-70
2022/12/30 05:45:14;;;;;;;4.85;1.45;;;;;;;11.65;50.56;100881.59;5000465;28;99766;-70
2022/12/30 05:47:41;;;;;;;4.70;0.98;;;;;;;11.41;50.90;100886.91;5005442;28;97341;-70
2022/12/30 05:50:08;;;;;;;8.70;1.30;;;;;;;11.37;51.07;100890.56;5002701;27;98904;-71
2022/12/30 05:52:36;;;;;;;6.68;1.60;;;;;;;11.38;51.08;100894.94;5003357;28;99264;-70
2022/12/30 05:55:02;;;;;;;6.47;1.42;;;;;;;11.32;51.38;100899.59;5003341;28;98868;-70
2022/12/30 05:57:28;;;;;;;9.48;1.35;;;;;;;11.24;51.59;100905.16;5001979;28;97475;-70
2022/12/30 05:59:55;;;;;;;10.20;1.80;;;;;;;11.38;51.23;100913.47;5002653;28;99120;-70
2022/12/30 06:02:21;;;;;;;14.35;1.38;;;;;;;11.16;51.66;100918.63;5003988;28;99353;-71
2022/12/30 06:04:48;;;;;;;10.27;1.52;;;;;;;11.12;51.71;100922.31;5006107;28;97178;-70
2022/12/30 06:07:14;;;;;;;7.90;1.20;;;;;;;11.32;51.21;100932.19;5001053;28;96910;-72
2022/12/30 06:09:42;;;;;;;9.90;1.50;;;;;;;11.09;52.00;100934.81;5005802;28;98145;-70
2022/12/30 06:12:09;;;;;;;9.07;1.77;;;;;;;11.08;52.15;100941.00;4998049;28;98998;-70
2022/12/30 06:14:35;;;;;;;9.55;1.20;;;;;;;11.24;51.53;100950.13;5001636;28;96982;-70
2022/12/30 06:17:01;;;;;;;15.88;2.22;;;;;;;11.10;51.92;100955.00;5005825;28;97215;-70
2022/12/30 06:19:28;;;;;;;8.43;1.30;;;;;;;10.92;52.38;100959.16;4999558;28;99048;-70
2022/12/30 06:21:54;;;;;;;9.23;1.30;;;;;;;11.02;52.24;100963.22;5003378;27;97735;-70
2022/12/30 06:24:21;;;;;;;10.98;1.23;;;;;;;10.96;52.40;100967.88;4997370;28;98831;-70
2022/12/30 06:26:48;;;;;;;8.55;1.38;;;;;;;10.99;52.42;100967.75;5005992;28;97217;-70
2022/12/30 06:29:15;;;;;;;15.45;1.60;;;;;;;10.82;52.81;100964.81;4998134;28;98914;-69
2022/12/30 06:31:42;;;;;;;8.45;1.50;;;;;;;10.91;52.83;100970.63;4999801;28;99196;-70
2022/12/30 06:34:08;;;;;;;6.25;1.20;;;;;;;10.86;53.00;100977.00;4997304;28;96826;-70
2022/12/30 06:36:34;;;;;;;5.55;1.23;;;;;;;10.95;52.67;100971.41;5003328;28;97783;-70
2022/12/30 06:39:01;;;;;;;9.95;1.30;;;;;;;10.97;52.52;100972.22;4999989;28;101697;-71
2022/12/30 06:41:27;;;;;;;5.50;1.15;;;;;;;10.86;52.57;100971.72;5001952;28;98793;-72
2022/12/30 06:43:55;;;;;;;9.50;1.30;;;;;;;10.67;53.42;100971.44;5000392;28;97015;-71
2022/12/30 06:46:22;;;;;;;8.38;1.10;;;;;;;10.60;53.15;100985.78;5006702;28;97180;-70
2022/12/30 06:48:48;;;;;;;7.50;1.25;;;;;;;10.68;53.22;100981.97;5002007;28;102718;-70
2022/12/30 06:51:15;;;;;;;4.82;1.00;;;;;;;10.56;53.46;100990.31;5004684;28;98880;-70
2022/12/30 06:53:41;;;;;;;5.13;1.17;;;;;;;10.68;53.18;100979.34;5003319;28;98783;-69
2022/12/30 06:56:08;;;;;;;8.60;1.38;;;;;;;10.70;53.40;100995.13;5003215;28;97285;-71
2022/12/30 06:58:34;;;;;;;7.00;1.08;;;;;;;10.81;52.85;100995.66;5000861;28;101406;-71
2022/12/30 07:01:02;;;;;;;7.25;1.90;;;;;;;10.63;53.37;101002.38;5007396;28;98779;-68
2022/12/30 07:03:29;;;;;;;7.50;1.35;;;;;;;10.74;52.87;101002.06;5001171;28;97217;-69
2022/12/30 07:05:55;;;;;;;8.32;1.23;;;;;;;10.82;53.11;100999.16;4995880;28;97371;-69
2022/12/30 07:08:22;;;;;;;7.07;1.60;;;;;;;10.79;52.91;101003.63;5003775;28;99003;-71
2022/12/30 07:10:48;;;;;;;8.35;2.35;;;;;;;10.64;53.38;101022.59;4997855;28;101499;-70
2022/12/30 07:13:15;;;;;;;10.27;1.83;;;;;;;10.57;53.27;101023.72;4999763;28;97639;-72
2022/12/30 07:15:41;;;;;;;7.95;1.27;;;;;;;10.47;53.96;101024.94;4999259;28;97096;-71
2022/12/30 07:18:09;;;;;;;7.50;1.27;;;;;;;10.46;54.17;101027.59;5000992;28;99259;-71
2022/12/30 07:20:36;;;;;;;7.07;1.52;;;;;;;10.40;54.27;101028.66;5012634;28;99099;-71
2022/12/30 07:23:04;;;;;;;9.43;1.10;;;;;;;10.41;54.52;101032.16;5003415;28;97627;-70
2022/12/30 07:25:31;;;;;;;13.55;2.05;;;;;;;10.54;53.60;101034.41;5005616;28;98037;-70
2022/12/30 07:27:58;;;;;;;7.90;1.60;;;;;;;10.60;53.73;101039.50;5002149;28;98376;-70
2022/12/30 07:30:25;;;;;;;7.90;1.45;;;;;;;10.65;53.33;101037.56;4997722;28;102941;-70
2022/12/30 07:32:51;;;;;;;7.07;1.30;;;;;;;10.45;53.68;101050.50;5001616;28;97783;-70
2022/12/30 07:35:19;;;;;;;9.00;1.90;;;;;;;10.53;53.48;101052.94;4999017;28;96893;-68
2022/12/30 07:37:45;;;;;;;9.00;1.45;;;;;;;10.69;53.40;101055.06;5000558;28;99524;-71
2022/12/30 07:40:12;;;;;;;9.02;1.55;;;;;;;10.66;53.18;101056.94;5001440;28;98786;-71
2022/12/30 07:42:39;;;;;;;12.40;1.52;;;;;;;10.60;53.18;101044.78;5001954;28;96912;-71
2022/12/30 07:45:07;;;;;;;8.55;1.58;;;;;;;10.57;53.53;101044.84;5009369;28;96888;-71
2022/12/30 07:47:34;;;;;;;8.32;1.60;;;;;;;10.45;53.64;101061.09;5008037;28;99288;-70
2022/12/30 07:50:01;;;;;;;14.77;1.85;;;;;;;10.68;52.81;101060.41;5002339;28;98965;-70
2022/12/30 07:52:28;;;;;;;6.82;1.38;;;;;;;10.56;53.17;101080.16;4999660;28;99186;-69
2022/12/30 07:54:55;;;;;;;13.60;2.80;;;;;;;10.38;53.56;101072.75;5000051;28;96964;-70
2022/12/30 07:57:22;;;;;;;9.85;2.22;;;;;;;10.56;53.38;101080.16;5002426;28;99989;-70
2022/12/30 07:59:48;;;;;;;7.68;1.80;;;;;;;10.77;52.85;101074.19;4994119;28;101499;-70
2022/12/30 08:02:15;;;;;;;11.35;1.70;;;;;;;10.71;52.63;101074.38;4997603;28;97609;-71
2022/12/30 08:04:41;;;;;;;12.20;1.83;;;;;;;10.59;53.39;101080.03;4995710;28;98548;-71
2022/12/30 08:07:07;;;;;;;9.63;1.40;;;;;;;10.47;53.91;101082.19;4997555;28;99430;-71
2022/12/30 08:09:36;;;;;;;11.98;1.52;;;;;;;10.59;53.66;101097.66;5001768;28;98777;-70
2022/12/30 08:12:02;;;;;;;11.63;1.80;;;;;;;10.59;53.31;101092.38;4996839;28;97320;-69
2022/12/30 08:14:29;;;;;;;10.57;1.60;;;;;;;10.60;53.71;101099.41;4993379;28;97019;-70
2022/12/30 08:16:56;;;;;;;14.05;2.15;;;;;;;10.58;53.77;101104.72;4995487;28;100076;-69
2022/12/30 08:19:22;;;;;;;11.07;2.03;;;;;;;10.56;53.45;101098.63;5002407;28;99118;-71
2022/12/30 08:21:49;;;;;;;10.23;1.75;;;;;;;10.75;53.25;101094.53;4998633;28;96843;-70
2022/12/30 08:24:15;;;;;;;12.25;1.58;;;;;;;10.94;52.51;101091.31;4999009;27;97071;-70
2022/12/30 08:26:43;;;;;;;11.63;1.75;;;;;;;10.80;52.95;101094.38;5003985;28;99020;-70
2022/12/30 08:29:09;;;;;;;11.52;1.50;;;;;;;10.82;52.97;101091.69;4999341;28;98834;-70
2022/12/30 08:31:35;;;;;;;7.35;1.40;;;;;;;10.83;52.74;101093.44;5002701;28;98780;-69
2022/12/30 08:34:02;;;;;;;6.93;1.38;;;;;;;10.84;52.90;101103.06;4992314;28;97337;-71
2022/12/30 08:36:29;;;;;;;8.40;1.65;;;;;;;10.62;53.19;101111.66;5000611;28;99308;-70
2022/12/30 08:39:00;;;;;;;8.63;1.35;;;;;;;10.50;53.74;101101.44;4996078;28;98748;-71
2022/12/30 08:41:28;;;;;;;13.00;2.78;;;;;;;10.72;53.50;101102.53;4995471;28;97467;-70
2022/12/30 08:43:57;;;;;;;12.63;1.90;;;;;;;10.86;52.81;101107.41;4991579;28;99616;-69
2022/12/30 08:46:26;;;;;;;12.75;2.00;;;;;;;10.81;52.54;101098.75;4997542;28;99187;-71
2022/12/30 08:48:53;;;;;;;11.38;1.90;;;;;;;10.75;52.76;101091.03;4998102;28;98900;-69
2022/12/30 08:51:20;;;;;;;12.82;2.00;;;;;;;10.74;52.77;101103.38;5000007;28;98754;-70
2022/12/30 08:53:47;;;;;;;9.02;1.80;;;;;;;10.93;52.26;101108.06;4996549;28;98898;-70
2022/12/30 08:56:16;;;;;;;6.80;1.33;;;;;;;10.75;52.47;101118.31;4995572;28;98010;-70
2022/12/30 08:58:43;;;;;;;10.50;1.65;;;;;;;11.01;52.31;101108.72;5003749;28;99472;-70
2022/12/30 09:01:13;;;;;;;10.00;1.75;;;;;;;11.09;51.94;101114.63;4990807;28;98801;-70
2022/12/30 09:03:41;;;;;;;8.88;1.48;;;;;;;10.95;52.12;101114.19;4998802;28;96767;-70
2022/12/30 09:06:09;;;;;;;11.38;1.50;;;;;;;11.01;52.29;101112.22;4998688;28;100225;-71
2022/12/30 09:08:36;;;;;;;8.43;1.50;;;;;;;11.07;51.98;101113.81;5003165;28;99393;-70
2022/12/30 09:11:04;;;;;;;9.55;1.50;;;;;;;11.27;51.70;101113.16;5002830;28;96743;-70
2022/12/30 09:13:32;;;;;;;7.72;1.67;;;;;;;11.20;51.44;101104.56;5001113;28;98082;-70
2022/12/30 09:15:59;;;;;;;13.57;1.45;;;;;;;11.22;51.40;101110.69;5001516;28;99380;-70
2022/12/30 09:18:27;;;;;;;9.98;1.88;;;;;;;11.20;51.65;101120.44;4998266;28;99003;-70
2022/12/30 09:20:53;;;;;;;8.30;1.80;;;;;;;11.29;51.28;101124.56;4995223;28;98734;-69
2022/12/30 09:23:19;;;;;;;10.20;1.60;;;;;;;11.43;50.88;101114.38;5000019;28;96892;-69
2022/12/30 09:25:46;;;;;;;9.02;1.83;;;;;;;11.41;51.05;101118.88;4996672;28;98892;-69
2022/12/30 09:28:12;;;;;;;7.43;1.55;;;;;;;11.43;50.86;101128.47;5002031;28;99292;-70
2022/12/30 09:30:39;;;;;;;11.68;1.58;;;;;;;11.53;50.46;101114.03;4996505;28;98732;-70
2022/12/30 09:33:06;;;;;;;8.93;1.33;;;;;;;11.70;50.31;101109.94;5003601;28;98497;-70
2022/12/30 09:35:34;;;;;;;12.90;1.60;;;;;;;11.70;50.44;101116.09;4997678;28;98838;-70
2022/12/30 09:38:00;;;;;;;10.43;1.95;;;;;;;11.87;50.09;101111.16;5011821;28;98818;-70
2022/12/30 09:40:45;;;;;;;8.02;1.75;;;;;;;12.04;49.67;101105.22;5008205;27;97867;-71
2022/12/30 09:43:21;;;;;;;9.00;1.50;;;;;;;12.06;49.58;101106.06;5007988;28;97257;-71
2022/12/30 09:45:59;;;;;;;6.63;1.00;;;;;;;12.02;49.15;101101.75;5006570;28;99082;-71
2022/12/30 09:48:32;;;;;;;6.40;1.50;;;;;;;11.98;49.37;101105.44;5004322;28;99188;-70
2022/12/30 09:51:03;;;;;;;5.50;1.30;;;;;;;11.82;49.77;101105.13;5002471;28;96739;-70
2022/12/30 09:53:37;;;;;;;9.55;1.42;;;;;;;12.09;49.36;101105.94;5008549;28;97268;-71
2022/12/30 09:56:11;;;;;;;12.00;2.03;;;;;;;12.38;48.65;101104.88;5005429;28;99037;-70
2022/12/30 09:58:38;;;;;;;14.38;1.75;;;;;;;12.49;48.33;101100.03;5007426;28;98049;-70
2022/12/30 10:01:14;;;;;;;9.55;1.80;;;;;;;12.57;48.07;101105.03;5000780;28;97415;-70
2022/12/30 10:03:40;;;;;;;9.60;1.52;;;;;;;12.66;47.73;101096.75;5007579;28;97024;-70
2022/12/30 10:06:22;;;;;;;9.40;1.73;;;;;;;12.82;47.30;101105.81;5003824;28;98947;-70
2022/12/30 10:09:07;;;;;;;7.70;1.30;;;;;;;12.93;46.64;101098.28;5003311;28;103184;-70
2022/12/30 10:11:44;;;;;;;7.38;1.35;;;;;;;12.88;47.16;101096.75;4998790;28;98804;-70
2022/12/30 10:14:17;;;;;;;9.50;1.35;;;;;;;12.94;46.77;101089.41;5003336;28;96820;-71
2022/12/30 10:16:56;;;;;;;9.38;1.60;;;;;;;12.96;46.56;101086.72;5003003;28;97857;-71
2022/12/30 10:19:33;;;;;;;7.30;1.48;;;;;;;12.78;46.72;101088.31;4999474;28;98834;-71
2022/12/30 10:22:09;;;;;;;7.05;1.60;;;;;;;12.97;46.77;101093.75;5008244;28;96952;-71
2022/12/30 10:24:47;;;;;;;8.88;1.23;;;;;;;13.11;46.20;101086.97;5004221;28;97294;-69
2022/12/30 10:27:19;;;;;;;9.43;1.65;;;;;;;13.23;46.01;101084.78;5009268;28;97788;-71
2022/12/30 10:29:46;;;;;;;8.60;1.40;;;;;;;13.43;45.67;101088.34;5007582;28;99070;-70
2022/12/30 10:32:19;;;;;;;6.15;1.55;;;;;;;13.54;45.11;101082.56;5004403;28;98101;-70
2022/12/30 10:34:47;;;;;;;8.65;1.58;;;;;;;13.62;44.94;101079.59;5002836;28;97941;-71
2022/12/30 10:37:23;;;;;;;10.18;1.38;;;;;;;13.33;45.28;101065.75;5004283;28;97778;-71
2022/12/30 10:39:52;;;;;;;8.55;1.55;;;;;;;13.30;45.67;101065.03;5003058;28;97640;-72
2022/12/30 10:42:29;;;;;;;9.30;1.52;;;;;;;13.52;45.08;101069.34;4999992;28;98124;-71
2022/12/30 10:45:12;;;;;;;8.85;1.50;;;;;;;13.54;45.10;101070.16;5003435;27;97506;-71
2022/12/30 10:47:52;;;;;;;5.82;1.38;;;;;;;13.30;45.34;101065.03;5003503;28;98467;-69
2022/12/30 10:50:32;;;;;;;10.98;3.20;;;;;;;13.42;45.38;101061.84;4999147;28;99363;-70
2022/12/30 10:53:02;;;;;;;8.98;1.52;;;;;;;13.29;45.55;101056.19;5001586;28;96911;-72
2022/12/30 10:55:32;;;;;;;11.00;1.20;;;;;;;13.48;45.42;101065.09;4996284;28;98840;-70
2022/12/30 10:58:00;;;;;;;11.27;1.80;;;;;;;13.44;45.36;101057.34;5000211;28;99884;-74
2022/12/30 11:00:27;;;;;;;10.20;1.20;;;;;;;13.50;45.41;101062.41;5003235;28;98028;-72
2022/12/30 11:02:57;;;;;;;4.85;1.15;;;;;;;13.25;45.65;101051.09;5006010;28;97043;-73
2022/12/30 11:05:29;;;;;;;6.38;1.45;;;;;;;13.43;45.18;101050.31;5000938;28;97393;-74
2022/12/30 11:07:58;;;;;;;7.72;1.48;;;;;;;13.50;45.28;101049.13;5001712;28;99330;-71
2022/12/30 11:10:27;;;;;;;9.68;1.38;;;;;;;13.93;44.30;101043.66;5001826;28;99042;-72
2022/12/30 11:15:54;;;;;;;8.60;1.70;;;;;;;14.03;43.98;101035.28;5005749;28;97603;-72
2022/12/30 11:18:24;;;;;;;9.45;1.88;;;;;;;14.04;44.47;101035.22;4999582;28;98978;-72
2022/12/30 11:20:53;;;;;;;7.97;1.45;;;;;;;13.95;43.61;101032.97;5002694;28;99966;-72
2022/12/30 11:23:26;;;;;;;8.77;1.20;;;;;;;13.77;44.33;101028.47;5001719;28;96819;-70
2022/12/30 11:25:54;;;;;;;4.22;1.10;;;;;;;13.94;44.25;101029.44;5007860;28;96896;-72
2022/12/30 11:28:23;;;;;;;8.23;1.30;;;;;;;13.84;44.12;101024.63;5003939;28;98844;-70
2022/12/30 11:31:00;;;;;;;8.70;1.60;;;;;;;13.76;44.67;101022.28;4998859;28;98900;-70
2022/12/30 11:33:30;;;;;;;7.22;1.25;;;;;;;13.71;44.51;101020.78;5004494;28;97072;-71
2022/12/30 11:36:13;;;;;;;7.93;1.42;;;;;;;13.74;44.38;101023.28;4995650;28;99624;-69
2022/12/30 11:38:41;;;;;;;10.90;1.50;;;;;;;13.66;44.59;101026.28;5004075;28;99301;-72
2022/12/30 11:41:27;;;;;;;8.90;1.45;;;;;;;13.67;44.75;101021.81;5000456;28;98862;-70
2022/12/30 11:44:12;;;;;;;8.37;1.43;;;;;;;13.62;45.02;101030.00;5001036;28;99110;-71
2022/12/30 11:46:40;;;;;;;7.80;1.10;;;;;;;13.49;45.04;101027.00;5001637;28;99334;-70
2022/12/30 11:49:25;;;;;;;11.00;1.48;;;;;;;13.51;45.22;101021.66;5004833;27;99444;-69
2022/12/30 11:51:54;;;;;;;13.32;1.77;;;;;;;13.51;45.19;101019.84;5004921;28;98817;-70
2022/12/30 11:54:23;;;;;;;10.07;1.58;;;;;;;13.61;45.07;101019.44;4992869;28;97267;-71
2022/12/30 11:56:56;;;;;;;11.35;1.42;;;;;;;13.66;44.71;101013.00;5001206;28;99042;-69
2022/12/30 11:59:28;;;;;;;7.78;1.60;;;;;;;13.61;44.95;101011.47;5001413;28;101795;-70
2022/12/30 12:01:58;;;;;;;4.30;1.33;;;;;;;13.77;44.68;101007.22;4999007;28;99482;-71
2022/12/30 12:04:37;;;;;;;11.98;1.50;;;;;;;13.74;44.47;101005.56;5001180;28;98355;-70
2022/12/30 12:07:05;;;;;;;13.90;2.13;;;;;;;13.89;44.47;101007.53;5000512;28;97603;-71
2022/12/30 12:09:35;;;;;;;9.20;1.48;;;;;;;13.89;44.12;101007.53;5001579;28;99273;-71
2022/12/30 12:12:07;;;;;;;10.45;1.50;;;;;;;13.65;44.56;101000.69;5000861;28;98818;-68
2022/12/30 12:14:41;;;;;;;7.07;1.42;;;;;;;13.63;44.65;100989.25;4999789;28;97102;-70
2022/12/30 12:17:21;;;;;;;8.77;1.40;;;;;;;13.69;44.65;100996.06;5002583;28;97403;-71
2022/12/30 12:19:53;;;;;;;7.97;1.25;;;;;;;13.74;44.74;100988.75;5000142;28;99059;-70